Time;durP1;ratioP1;P1;durP2;ratioP2;P2;SDS_P1;SDS_P2;PMS_P1;PMS_P2;Temp;Humidity;BMP_temperature;BMP_pressure;BME280_temperature;BME280_humidity;BME280_pressure;Samples;Min_cycle;Max_cycle;Signal;HPM_P1;HPM_P2
2022/01/09 00:01:39;;;;;;;4.07;3.77;;;;;;;;;;5031128;28;20318;-72
2022/01/09 00:04:05;;;;;;;4.17;3.87;;;;;;;;;;5031670;28;21096;-71
2022/01/09 00:06:32;;;;;;;4.53;4.23;;;;;;;;;;5030331;28;20231;-71
2022/01/09 00:08:58;;;;;;;4.63;4.23;;;;;;;;;;5031633;28;20230;-72
2022/01/09 00:11:26;;;;;;;4.80;4.40;;;;;;;;;;5032220;28;20231;-71
2022/01/09 00:13:53;;;;;;;5.10;4.70;;;;;;;;;;5031851;28;20251;-71
2022/01/09 00:16:21;;;;;;;5.23;4.73;;;;;;;;;;5032217;28;20599;-71
2022/01/09 00:18:48;;;;;;;5.50;5.03;;;;;;;;;;5031129;28;20218;-71
2022/01/09 00:21:14;;;;;;;5.40;5.00;;;;;;;;;;5032144;28;20227;-71
2022/01/09 00:23:42;;;;;;;6.30;5.70;;;;;;;;;;5032967;28;20260;-72
2022/01/09 00:26:08;;;;;;;6.93;6.33;;;;;;;;;;5031034;28;20214;-72
2022/01/09 00:28:35;;;;;;;6.57;6.07;;;;;;;;;;5030983;28;20216;-72
2022/01/09 00:31:02;;;;;;;7.23;6.63;;;;;;;;;;5032832;28;20838;-72
2022/01/09 00:33:29;;;;;;;7.47;6.77;;;;;;;;;;5031346;28;20227;-72
2022/01/09 00:35:56;;;;;;;8.50;7.60;;;;;;;;;;5029784;28;20230;-72
2022/01/09 00:38:22;;;;;;;9.90;7.53;;;;;;;;;;5031982;28;20210;-72
2022/01/09 00:40:49;;;;;;;8.43;7.63;;;;;;;;;;5031034;28;20249;-72
2022/01/09 00:43:15;;;;;;;9.50;8.60;;;;;;;;;;5029677;28;20276;-72
2022/01/09 00:45:42;;;;;;;10.20;8.83;;;;;;;;;;5031281;28;20218;-72
2022/01/09 00:48:10;;;;;;;10.27;9.27;;;;;;;;;;5030479;28;20227;-71
2022/01/09 00:50:40;;;;;;;14.60;9.73;;;;;;;;;;5028269;28;20241;-71
2022/01/09 00:53:06;;;;;;;9.40;8.50;;;;;;;;;;5030623;28;20222;-71
2022/01/09 00:55:33;;;;;;;9.93;7.17;;;;;;;;;;5030742;28;20357;-71
2022/01/09 00:58:00;;;;;;;5.10;4.03;;;;;;;;;;5030826;28;20552;-71
2022/01/09 01:00:26;;;;;;;5.47;3.83;;;;;;;;;;5032283;28;20249;-71
2022/01/09 01:02:53;;;;;;;5.43;3.50;;;;;;;;;;5030251;28;20435;-72
2022/01/09 01:05:19;;;;;;;7.30;3.33;;;;;;;;;;5029093;28;20857;-71
2022/01/09 01:07:47;;;;;;;9.40;2.43;;;;;;;;;;5031943;28;20244;-72
2022/01/09 01:10:14;;;;;;;8.37;2.43;;;;;;;;;;5029537;28;20235;-71
2022/01/09 01:12:40;;;;;;;8.57;2.40;;;;;;;;;;5029355;28;20230;-71
2022/01/09 01:15:08;;;;;;;13.07;3.67;;;;;;;;;;5029519;28;20670;-71
2022/01/09 01:17:36;;;;;;;13.20;3.83;;;;;;;;;;5030471;28;20231;-72
2022/01/09 01:20:02;;;;;;;18.70;3.27;;;;;;;;;;5030173;28;20319;-71
2022/01/09 01:22:30;;;;;;;13.73;3.47;;;;;;;;;;5031111;28;20265;-71
2022/01/09 01:24:58;;;;;;;14.93;3.13;;;;;;;;;;5030998;28;20243;-71
2022/01/09 01:27:26;;;;;;;11.53;2.97;;;;;;;;;;5029297;28;20214;-70
2022/01/09 01:29:52;;;;;;;7.83;2.13;;;;;;;;;;5028885;28;20697;-70
2022/01/09 01:32:18;;;;;;;8.57;2.60;;;;;;;;;;5030393;28;20235;-71
2022/01/09 01:34:45;;;;;;;9.07;2.30;;;;;;;;;;5030744;28;20336;-71
2022/01/09 01:37:11;;;;;;;11.87;2.23;;;;;;;;;;5028731;28;20210;-71
2022/01/09 01:39:38;;;;;;;7.97;1.87;;;;;;;;;;5030308;28;20268;-70
2022/01/09 01:42:06;;;;;;;8.17;1.90;;;;;;;;;;5028765;28;20250;-70
2022/01/09 01:44:40;;;;;;;15.70;2.80;;;;;;;;;;5029380;28;20212;-70
2022/01/09 01:47:06;;;;;;;22.30;5.50;;;;;;;;;;5029566;28;20296;-71
2022/01/09 01:49:33;;;;;;;24.63;4.70;;;;;;;;;;5029301;28;20213;-71
2022/01/09 01:52:00;;;;;;;20.07;4.37;;;;;;;;;;5029661;28;20757;-70
2022/01/09 01:54:27;;;;;;;16.67;3.70;;;;;;;;;;5030196;28;20219;-70
2022/01/09 01:56:53;;;;;;;17.90;4.43;;;;;;;;;;5029255;28;20238;-70
2022/01/09 01:59:22;;;;;;;16.23;3.73;;;;;;;;;;5028991;28;20760;-70
2022/01/09 02:01:48;;;;;;;11.60;3.60;;;;;;;;;;5030859;28;20694;-70
2022/01/09 02:04:15;;;;;;;12.40;2.97;;;;;;;;;;5029521;28;20950;-69
2022/01/09 02:06:41;;;;;;;19.27;3.73;;;;;;;;;;5029128;28;20293;-69
2022/01/09 02:09:07;;;;;;;15.97;3.80;;;;;;;;;;5029622;28;20211;-69
2022/01/09 02:11:34;;;;;;;12.33;3.67;;;;;;;;;;5028997;28;20230;-69
2022/01/09 02:14:01;;;;;;;16.43;4.57;;;;;;;;;;5029077;28;20296;-69
2022/01/09 02:16:29;;;;;;;16.97;5.60;;;;;;;;;;5030155;28;20219;-69
2022/01/09 02:18:57;;;;;;;21.63;5.27;;;;;;;;;;5029193;28;20243;-69
2022/01/09 02:21:26;;;;;;;22.93;7.23;;;;;;;;;;5029558;28;20562;-69
2022/01/09 02:23:52;;;;;;;20.13;6.80;;;;;;;;;;5029271;28;20338;-69
2022/01/09 02:26:21;;;;;;;24.73;7.20;;;;;;;;;;5028037;28;20706;-69
2022/01/09 02:28:48;;;;;;;28.90;10.40;;;;;;;;;;5028931;28;20244;-68
2022/01/09 02:31:15;;;;;;;25.30;8.50;;;;;;;;;;5029250;28;20542;-68
2022/01/09 02:33:41;;;;;;;17.23;6.93;;;;;;;;;;5029958;28;20210;-68
2022/01/09 02:36:09;;;;;;;27.13;8.70;;;;;;;;;;5028728;28;20271;-69
2022/01/09 02:38:37;;;;;;;30.17;9.37;;;;;;;;;;5028312;28;20921;-68
2022/01/09 02:41:03;;;;;;;27.40;8.63;;;;;;;;;;5028987;28;20234;-69
2022/01/09 02:43:30;;;;;;;26.90;8.57;;;;;;;;;;5029541;28;20254;-68
2022/01/09 02:46:05;;;;;;;20.73;6.57;;;;;;;;;;5026931;28;20273;-68
2022/01/09 02:48:34;;;;;;;26.93;6.63;;;;;;;;;;5031419;28;20206;-68
2022/01/09 02:51:05;;;;;;;22.53;6.17;;;;;;;;;;5026778;28;20397;-68
2022/01/09 02:53:34;;;;;;;33.43;8.27;;;;;;;;;;5029053;28;20301;-68
2022/01/09 02:56:04;;;;;;;26.87;4.90;;;;;;;;;;5029501;28;20604;-68
2022/01/09 02:58:30;;;;;;;26.80;5.13;;;;;;;;;;5030040;28;20206;-68
2022/01/09 03:00:57;;;;;;;22.43;5.63;;;;;;;;;;5028214;28;20211;-68
2022/01/09 03:03:24;;;;;;;26.90;6.17;;;;;;;;;;5029219;28;20235;-68
2022/01/09 03:05:50;;;;;;;15.03;4.37;;;;;;;;;;5029716;28;21003;-69
2022/01/09 03:08:17;;;;;;;21.43;4.80;;;;;;;;;;5028210;28;20229;-68
2022/01/09 03:10:43;;;;;;;18.17;4.27;;;;;;;;;;5028662;28;20239;-69
2022/01/09 03:13:11;;;;;;;19.33;4.90;;;;;;;;;;5027446;28;20242;-68
2022/01/09 03:15:38;;;;;;;22.37;5.00;;;;;;;;;;5028314;28;20222;-69
2022/01/09 03:18:04;;;;;;;21.73;4.23;;;;;;;;;;5029209;28;20647;-68
2022/01/09 03:20:31;;;;;;;19.63;5.03;;;;;;;;;;5026849;28;20227;-68
2022/01/09 03:22:57;;;;;;;26.03;4.70;;;;;;;;;;5027978;28;20637;-67
2022/01/09 03:25:25;;;;;;;25.40;5.27;;;;;;;;;;5028800;28;20219;-68
2022/01/09 03:27:52;;;;;;;18.47;4.23;;;;;;;;;;5027205;28;20261;-68
2022/01/09 03:30:22;;;;;;;24.10;4.57;;;;;;;;;;5027472;28;20214;-68
2022/01/09 03:32:50;;;;;;;18.97;4.53;;;;;;;;;;5028402;28;20242;-68
2022/01/09 03:35:19;;;;;;;14.93;3.47;;;;;;;;;;5029864;28;20222;-68
2022/01/09 03:37:47;;;;;;;12.93;3.50;;;;;;;;;;5031333;28;20882;-68
2022/01/09 03:40:18;;;;;;;14.60;3.73;;;;;;;;;;5031795;28;20222;-68
2022/01/09 03:42:45;;;;;;;12.57;3.27;;;;;;;;;;5031792;28;20646;-67
2022/01/09 03:45:11;;;;;;;14.10;3.50;;;;;;;;;;5031006;28;20215;-68
2022/01/09 03:47:39;;;;;;;13.47;3.33;;;;;;;;;;5030945;28;20269;-68
2022/01/09 03:50:08;;;;;;;16.63;3.60;;;;;;;;;;5031278;28;20855;-68
2022/01/09 03:52:37;;;;;;;12.63;2.83;;;;;;;;;;5031752;28;20231;-68
2022/01/09 03:55:05;;;;;;;14.60;2.93;;;;;;;;;;5032864;28;20328;-68
2022/01/09 03:57:31;;;;;;;8.40;2.70;;;;;;;;;;5032348;28;20214;-68
2022/01/09 03:59:58;;;;;;;15.20;2.93;;;;;;;;;;5031890;28;20215;-67
2022/01/09 04:02:24;;;;;;;12.40;3.27;;;;;;;;;;5032172;28;20222;-68
2022/01/09 04:04:52;;;;;;;11.87;3.43;;;;;;;;;;5032159;28;20231;-68
2022/01/09 04:07:18;;;;;;;11.47;2.40;;;;;;;;;;5031523;28;20272;-68
2022/01/09 04:09:46;;;;;;;13.27;2.83;;;;;;;;;;5032296;28;20713;-68
2022/01/09 04:12:16;;;;;;;10.37;2.30;;;;;;;;;;5031295;28;21001;-68
2022/01/09 04:14:43;;;;;;;12.10;2.33;;;;;;;;;;5031232;28;20218;-68
2022/01/09 04:17:18;;;;;;;7.23;1.97;;;;;;;;;;5030785;28;20249;-67
2022/01/09 04:19:45;;;;;;;9.30;2.30;;;;;;;;;;5032188;28;20218;-68
2022/01/09 04:22:12;;;;;;;5.47;1.60;;;;;;;;;;5031891;28;20261;-68
2022/01/09 04:24:39;;;;;;;6.43;1.80;;;;;;;;;;5032687;28;20211;-68
2022/01/09 04:27:06;;;;;;;5.33;1.53;;;;;;;;;;5030476;28;20215;-68
2022/01/09 04:29:32;;;;;;;5.63;1.77;;;;;;;;;;5030524;28;20277;-68
2022/01/09 04:31:59;;;;;;;8.73;1.93;;;;;;;;;;5030510;28;20878;-67
2022/01/09 04:34:25;;;;;;;10.50;1.97;;;;;;;;;;5029984;28;20215;-67
2022/01/09 04:36:52;;;;;;;3.20;0.80;;;;;;;;;;5030274;28;20215;-67
2022/01/09 04:39:20;;;;;;;3.53;0.90;;;;;;;;;;5030563;28;20214;-69
2022/01/09 04:41:46;;;;;;;3.20;1.00;;;;;;;;;;5030874;28;20284;-69
2022/01/09 04:44:13;;;;;;;5.10;1.10;;;;;;;;;;5031214;28;20215;-69
2022/01/09 04:46:45;;;;;;;5.07;1.40;;;;;;;;;;5029144;28;20235;-68
2022/01/09 04:49:11;;;;;;;3.20;0.87;;;;;;;;;;5031308;28;20293;-69
2022/01/09 04:51:38;;;;;;;4.40;1.07;;;;;;;;;;5031332;28;20342;-68
2022/01/09 04:54:05;;;;;;;5.70;1.40;;;;;;;;;;5030353;28;20222;-68
2022/01/09 04:56:33;;;;;;;4.90;1.40;;;;;;;;;;5030971;28;20215;-68
2022/01/09 04:58:59;;;;;;;7.63;1.40;;;;;;;;;;5030252;28;20222;-68
2022/01/09 05:01:25;;;;;;;9.50;1.70;;;;;;;;;;5031077;28;20231;-68
2022/01/09 05:03:52;;;;;;;5.20;1.03;;;;;;;;;;5031347;28;20265;-67
2022/01/09 05:06:19;;;;;;;7.57;1.43;;;;;;;;;;5030683;28;20231;-67
2022/01/09 05:08:45;;;;;;;6.87;1.60;;;;;;;;;;5029193;28;20764;-68
2022/01/09 05:11:13;;;;;;;4.97;1.50;;;;;;;;;;5029703;28;21285;-68
2022/01/09 05:13:41;;;;;;;7.97;1.20;;;;;;;;;;5030992;28;20293;-68
2022/01/09 05:16:07;;;;;;;7.47;1.50;;;;;;;;;;5030562;28;20211;-67
2022/01/09 05:18:41;;;;;;;7.70;1.87;;;;;;;;;;5030802;28;20320;-68
2022/01/09 05:21:07;;;;;;;10.63;1.77;;;;;;;;;;5031189;28;20491;-67
2022/01/09 05:23:34;;;;;;;7.17;1.60;;;;;;;;;;5029118;28;20208;-68
2022/01/09 05:26:00;;;;;;;7.37;1.60;;;;;;;;;;5029027;28;20288;-67
2022/01/09 05:28:26;;;;;;;7.87;1.77;;;;;;;;;;5031246;28;20219;-67
2022/01/09 05:30:55;;;;;;;7.17;1.83;;;;;;;;;;5030056;28;20663;-71
2022/01/09 05:33:21;;;;;;;8.97;2.27;;;;;;;;;;5029338;28;20289;-72
2022/01/09 05:35:47;;;;;;;8.37;1.77;;;;;;;;;;5030664;28;21009;-72
2022/01/09 05:38:14;;;;;;;5.63;1.80;;;;;;;;;;5030325;28;20345;-72
2022/01/09 05:40:40;;;;;;;12.37;2.67;;;;;;;;;;5031826;28;20216;-72
2022/01/09 05:43:07;;;;;;;9.97;2.17;;;;;;;;;;5030410;28;20211;-73
2022/01/09 05:45:33;;;;;;;9.07;2.57;;;;;;;;;;5028104;28;20931;-73
2022/01/09 05:48:02;;;;;;;7.70;2.20;;;;;;;;;;5028681;28;20520;-73
2022/01/09 05:50:28;;;;;;;13.73;2.57;;;;;;;;;;5029914;28;20233;-73
2022/01/09 05:52:55;;;;;;;9.77;2.73;;;;;;;;;;5029448;28;20659;-73
2022/01/09 05:55:21;;;;;;;12.37;2.97;;;;;;;;;;5030005;28;20500;-73
2022/01/09 05:57:48;;;;;;;16.50;2.90;;;;;;;;;;5032843;28;20265;-72
2022/01/09 06:00:15;;;;;;;11.20;2.13;;;;;;;;;;5027687;28;20223;-73
2022/01/09 06:02:42;;;;;;;10.67;2.73;;;;;;;;;;5029090;28;20227;-73
2022/01/09 06:05:10;;;;;;;12.17;2.30;;;;;;;;;;5029794;28;20225;-73
2022/01/09 06:07:39;;;;;;;9.60;2.47;;;;;;;;;;5029669;28;20214;-73
2022/01/09 06:10:06;;;;;;;9.90;2.50;;;;;;;;;;5028095;28;21055;-73
2022/01/09 06:12:33;;;;;;;11.57;2.30;;;;;;;;;;5028790;28;20288;-73
2022/01/09 06:14:59;;;;;;;9.23;2.43;;;;;;;;;;5029587;28;20211;-72
2022/01/09 06:17:26;;;;;;;10.13;2.53;;;;;;;;;;5027742;28;21804;-73
2022/01/09 06:19:53;;;;;;;10.47;2.60;;;;;;;;;;5029475;28;20234;-73
2022/01/09 06:22:21;;;;;;;9.63;2.40;;;;;;;;;;5028705;28;20211;-73
2022/01/09 06:24:50;;;;;;;8.87;2.37;;;;;;;;;;5028730;28;20280;-73
2022/01/09 06:27:17;;;;;;;8.10;1.60;;;;;;;;;;5027233;28;20238;-73
2022/01/09 06:29:44;;;;;;;9.93;2.17;;;;;;;;;;5027905;28;20246;-73
2022/01/09 06:32:11;;;;;;;6.23;1.80;;;;;;;;;;5028873;28;20242;-73
2022/01/09 06:34:37;;;;;;;8.83;2.40;;;;;;;;;;5029256;28;20264;-73
2022/01/09 06:37:04;;;;;;;10.20;2.87;;;;;;;;;;5029297;28;20729;-72
2022/01/09 06:39:32;;;;;;;14.53;3.67;;;;;;;;;;5028826;28;20215;-73
2022/01/09 06:41:58;;;;;;;10.80;2.60;;;;;;;;;;5028751;28;20223;-73
2022/01/09 06:44:25;;;;;;;12.13;2.73;;;;;;;;;;5029419;28;21034;-73
2022/01/09 06:46:51;;;;;;;11.73;2.60;;;;;;;;;;5027586;28;20234;-73
2022/01/09 06:49:18;;;;;;;12.20;2.80;;;;;;;;;;5030076;28;20211;-73
2022/01/09 06:51:44;;;;;;;11.60;3.00;;;;;;;;;;5029321;28;20917;-72
2022/01/09 06:54:10;;;;;;;14.47;2.50;;;;;;;;;;5026750;28;20241;-73
2022/01/09 06:56:38;;;;;;;9.47;2.47;;;;;;;;;;5030160;28;20227;-73
2022/01/09 06:59:05;;;;;;;9.63;2.73;;;;;;;;;;5028600;28;20871;-72
2022/01/09 07:01:31;;;;;;;6.47;2.10;;;;;;;;;;5026479;28;20234;-73
2022/01/09 07:03:57;;;;;;;7.20;2.30;;;;;;;;;;5030761;28;20207;-72
2022/01/09 07:06:24;;;;;;;6.07;1.87;;;;;;;;;;5027637;28;20218;-72
2022/01/09 07:08:50;;;;;;;7.50;2.43;;;;;;;;;;5025427;28;20858;-72
2022/01/09 07:11:17;;;;;;;8.37;1.80;;;;;;;;;;5029447;28;20260;-72
2022/01/09 07:13:45;;;;;;;6.93;1.87;;;;;;;;;;5030050;28;20235;-72
2022/01/09 07:16:11;;;;;;;5.30;1.70;;;;;;;;;;5031485;28;20215;-72
2022/01/09 07:18:38;;;;;;;7.30;2.37;;;;;;;;;;5032263;28;20266;-72
2022/01/09 07:21:04;;;;;;;7.50;2.60;;;;;;;;;;5031162;28;20992;-73
2022/01/09 07:23:31;;;;;;;7.50;2.10;;;;;;;;;;5031404;28;20599;-71
2022/01/09 07:25:57;;;;;;;8.20;1.83;;;;;;;;;;5031522;28;20896;-73
2022/01/09 07:28:23;;;;;;;8.43;1.87;;;;;;;;;;5030448;28;20834;-73
2022/01/09 07:30:51;;;;;;;7.43;1.97;;;;;;;;;;5029379;28;20484;-73
2022/01/09 07:33:18;;;;;;;7.00;1.60;;;;;;;;;;5028149;28;20615;-73
2022/01/09 07:35:44;;;;;;;6.30;1.80;;;;;;;;;;5028657;28;20223;-72
2022/01/09 07:38:11;;;;;;;10.23;1.73;;;;;;;;;;5028745;28;20208;-72
2022/01/09 07:40:37;;;;;;;6.20;1.70;;;;;;;;;;5030238;28;20215;-73
2022/01/09 07:43:04;;;;;;;5.63;1.93;;;;;;;;;;5027457;28;20206;-74
2022/01/09 07:45:30;;;;;;;7.17;1.93;;;;;;;;;;5027586;28;20564;-72
2022/01/09 07:48:00;;;;;;;7.50;2.27;;;;;;;;;;5032086;28;20223;-74
2022/01/09 07:50:27;;;;;;;6.53;2.03;;;;;;;;;;5030324;28;20607;-73
2022/01/09 07:52:55;;;;;;;4.93;1.30;;;;;;;;;;5028977;28;20765;-73
2022/01/09 07:55:22;;;;;;;7.13;1.27;;;;;;;;;;5027278;28;20265;-74
2022/01/09 07:57:49;;;;;;;7.07;2.13;;;;;;;;;;5028439;28;20218;-73
2022/01/09 08:00:17;;;;;;;8.03;1.57;;;;;;;;;;5027621;28;20863;-73
2022/01/09 08:02:44;;;;;;;3.97;1.30;;;;;;;;;;5029420;28;20254;-73
2022/01/09 08:05:13;;;;;;;7.07;2.20;;;;;;;;;;5029182;28;20668;-73
2022/01/09 08:07:40;;;;;;;8.57;1.77;;;;;;;;;;5028650;28;20215;-73
2022/01/09 08:10:07;;;;;;;7.47;2.03;;;;;;;;;;5030346;28;20239;-73
2022/01/09 08:12:33;;;;;;;7.90;1.90;;;;;;;;;;5027518;28;20713;-72
2022/01/09 08:15:00;;;;;;;4.07;1.10;;;;;;;;;;5028622;28;20204;-73
2022/01/09 08:17:26;;;;;;;6.13;1.53;;;;;;;;;;5028867;28;20265;-74
2022/01/09 08:19:53;;;;;;;2.87;0.90;;;;;;;;;;5028487;28;21065;-74
2022/01/09 08:22:21;;;;;;;3.87;1.57;;;;;;;;;;5028668;28;20264;-73
2022/01/09 08:24:49;;;;;;;5.37;1.57;;;;;;;;;;5027819;28;20219;-74
2022/01/09 08:27:16;;;;;;;8.20;1.73;;;;;;;;;;5028133;28;20298;-72
2022/01/09 08:29:42;;;;;;;6.27;1.43;;;;;;;;;;5029025;28;20658;-74
2022/01/09 08:32:10;;;;;;;4.83;1.30;;;;;;;;;;5028793;28;20961;-73
2022/01/09 08:34:36;;;;;;;5.10;1.60;;;;;;;;;;5029339;28;20234;-74
2022/01/09 08:37:03;;;;;;;4.37;1.60;;;;;;;;;;5028571;28;20210;-74
2022/01/09 08:39:30;;;;;;;8.37;1.63;;;;;;;;;;5029997;28;20249;-74
2022/01/09 08:41:57;;;;;;;6.40;1.70;;;;;;;;;;5028638;28;20637;-74
2022/01/09 08:44:23;;;;;;;6.67;2.10;;;;;;;;;;5029463;28;20211;-74
2022/01/09 08:46:50;;;;;;;9.57;1.73;;;;;;;;;;5028087;28;20280;-73
2022/01/09 08:49:16;;;;;;;10.30;2.00;;;;;;;;;;5028348;28;20268;-74
2022/01/09 08:51:42;;;;;;;7.43;2.20;;;;;;;;;;5028702;28;20300;-73
2022/01/09 08:54:09;;;;;;;7.80;2.20;;;;;;;;;;5030252;28;20230;-72
2022/01/09 08:56:39;;;;;;;5.97;1.97;;;;;;;;;;5028027;28;20288;-73
2022/01/09 08:59:05;;;;;;;7.87;2.50;;;;;;;;;;5028309;28;20227;-73
2022/01/09 09:01:32;;;;;;;7.97;2.00;;;;;;;;;;5028380;28;20576;-74
2022/01/09 09:03:58;;;;;;;5.77;1.87;;;;;;;;;;5026674;28;20207;-74
2022/01/09 09:06:25;;;;;;;7.40;2.33;;;;;;;;;;5026333;28;20258;-74
2022/01/09 09:08:51;;;;;;;8.73;1.70;;;;;;;;;;5026357;28;20713;-74
2022/01/09 09:11:18;;;;;;;6.70;1.90;;;;;;;;;;5026781;28;20702;-74
2022/01/09 09:13:46;;;;;;;9.23;2.00;;;;;;;;;;5027621;28;20238;-74
2022/01/09 09:16:12;;;;;;;9.97;2.17;;;;;;;;;;5028095;28;20904;-75
2022/01/09 09:18:39;;;;;;;7.70;1.70;;;;;;;;;;5027727;28;20215;-75
2022/01/09 09:21:06;;;;;;;5.47;1.77;;;;;;;;;;5028907;28;20712;-75
2022/01/09 09:23:32;;;;;;;7.37;2.40;;;;;;;;;;5028101;28;20219;-73
2022/01/09 09:25:59;;;;;;;5.07;1.70;;;;;;;;;;5027721;28;20631;-74
2022/01/09 09:28:25;;;;;;;7.67;2.10;;;;;;;;;;5027398;28;20622;-74
2022/01/09 09:30:53;;;;;;;5.70;1.50;;;;;;;;;;5027694;28;20223;-74
2022/01/09 09:33:19;;;;;;;6.27;1.70;;;;;;;;;;5026994;28;20234;-73
2022/01/09 09:35:46;;;;;;;6.90;1.47;;;;;;;;;;5026386;28;20226;-74
2022/01/09 09:38:12;;;;;;;7.47;1.43;;;;;;;;;;5028008;28;20261;-74
2022/01/09 09:40:40;;;;;;;6.60;1.77;;;;;;;;;;5027533;28;20215;-74
2022/01/09 09:43:07;;;;;;;5.07;1.70;;;;;;;;;;5028232;28;20284;-75
2022/01/09 09:45:33;;;;;;;5.27;2.00;;;;;;;;;;5029202;28;20281;-74
2022/01/09 09:48:01;;;;;;;8.67;1.83;;;;;;;;;;5025184;28;20235;-74
2022/01/09 09:50:27;;;;;;;6.80;1.93;;;;;;;;;;5027088;28;20231;-73
2022/01/09 09:52:54;;;;;;;6.70;1.73;;;;;;;;;;5026879;28;20210;-74
2022/01/09 09:55:20;;;;;;;8.60;2.40;;;;;;;;;;5029213;28;20594;-73
2022/01/09 09:57:47;;;;;;;7.53;2.00;;;;;;;;;;5028134;28;20624;-74
2022/01/09 10:00:16;;;;;;;9.20;2.30;;;;;;;;;;5025979;28;20223;-74
2022/01/09 10:02:44;;;;;;;10.03;2.70;;;;;;;;;;5027500;28;20607;-74
2022/01/09 10:05:14;;;;;;;7.97;2.17;;;;;;;;;;5025905;28;20226;-74
2022/01/09 10:07:40;;;;;;;7.37;1.97;;;;;;;;;;5027439;28;20243;-74
2022/01/09 10:10:09;;;;;;;13.10;2.70;;;;;;;;;;5026069;28;20227;-74
2022/01/09 10:12:37;;;;;;;9.07;2.13;;;;;;;;;;5026750;28;20227;-74
2022/01/09 10:15:08;;;;;;;8.87;2.17;;;;;;;;;;5027504;28;20288;-74
2022/01/09 10:17:35;;;;;;;7.07;1.87;;;;;;;;;;5027800;28;20285;-73
2022/01/09 10:20:04;;;;;;;5.70;1.60;;;;;;;;;;5028454;28;20230;-74
2022/01/09 10:22:37;;;;;;;11.07;2.10;;;;;;;;;;5028469;28;20200;-74
2022/01/09 10:25:31;;;;;;;7.33;1.57;;;;;;;;;;5027628;28;20206;-73
2022/01/09 10:28:01;;;;;;;8.13;1.97;;;;;;;;;;5026900;28;20210;-74
2022/01/09 10:30:30;;;;;;;8.27;2.20;;;;;;;;;;5028215;28;20211;-74
2022/01/09 10:32:57;;;;;;;5.23;1.23;;;;;;;;;;5027538;28;20549;-74
2022/01/09 10:35:25;;;;;;;6.80;1.80;;;;;;;;;;5026209;28;20281;-73
2022/01/09 10:38:07;;;;;;;6.67;1.50;;;;;;;;;;5025785;28;20736;-73
2022/01/09 10:40:38;;;;;;;4.80;1.10;;;;;;;;;;5027149;28;20646;-74
2022/01/09 10:43:06;;;;;;;6.33;1.00;;;;;;;;;;5027219;28;20307;-73
2022/01/09 10:45:33;;;;;;;6.00;1.80;;;;;;;;;;5026412;28;20215;-74
2022/01/09 10:48:05;;;;;;;5.13;1.53;;;;;;;;;;5026989;28;20222;-74
2022/01/09 10:50:34;;;;;;;6.27;1.67;;;;;;;;;;5024664;28;20226;-73
2022/01/09 10:53:22;;;;;;;6.10;1.60;;;;;;;;;;5027390;28;20210;-73
2022/01/09 10:56:01;;;;;;;7.20;1.30;;;;;;;;;;5027073;28;20214;-74
2022/01/09 10:58:29;;;;;;;4.23;1.77;;;;;;;;;;5026025;28;20661;-74
2022/01/09 11:01:14;;;;;;;4.90;1.37;;;;;;;;;;5027437;28;20248;-73
2022/01/09 11:03:44;;;;;;;3.87;1.27;;;;;;;;;;5026589;28;20265;-73
2022/01/09 11:06:11;;;;;;;5.93;1.53;;;;;;;;;;5026272;28;20241;-73
2022/01/09 11:08:40;;;;;;;7.27;1.93;;;;;;;;;;5026775;28;20260;-73
2022/01/09 11:11:09;;;;;;;5.90;1.80;;;;;;;;;;5025783;28;20231;-73
2022/01/09 11:13:38;;;;;;;7.90;1.87;;;;;;;;;;5026856;28;20355;-74
2022/01/09 11:18:50;;;;;;;8.83;2.07;;;;;;;;;;5028298;28;20349;-74
2022/01/09 11:21:16;;;;;;;9.37;2.13;;;;;;;;;;5027880;28;20234;-75
2022/01/09 11:23:58;;;;;;;11.13;2.93;;;;;;;;;;5028240;28;20210;-74
2022/01/09 11:26:31;;;;;;;10.13;1.70;;;;;;;;;;5026533;28;20222;-73
2022/01/09 11:28:58;;;;;;;9.33;2.03;;;;;;;;;;5026315;28;20215;-74
2022/01/09 11:31:34;;;;;;;6.83;2.00;;;;;;;;;;5026117;28;20234;-75
2022/01/09 11:34:16;;;;;;;8.77;2.30;;;;;;;;;;5026881;28;20223;-74
2022/01/09 11:36:52;;;;;;;5.90;1.57;;;;;;;;;;5025118;28;20231;-75
2022/01/09 11:39:23;;;;;;;8.40;2.27;;;;;;;;;;5027010;28;20206;-74
2022/01/09 11:42:08;;;;;;;9.47;2.33;;;;;;;;;;5029026;28;20203;-75
2022/01/09 11:44:34;;;;;;;9.10;2.17;;;;;;;;;;5029629;28;20210;-74
2022/01/09 11:47:03;;;;;;;10.20;2.20;;;;;;;;;;5026922;28;20228;-74
2022/01/09 11:49:37;;;;;;;7.90;2.10;;;;;;;;;;5025108;28;20463;-74
2022/01/09 11:52:03;;;;;;;5.50;2.00;;;;;;;;;;5027273;28;20595;-75
2022/01/09 11:54:47;;;;;;;8.90;2.40;;;;;;;;;;5025219;28;20249;-74
2022/01/09 11:57:20;;;;;;;8.03;2.37;;;;;;;;;;5026987;28;20360;-74
2022/01/09 11:59:51;;;;;;;9.20;2.27;;;;;;;;;;5030770;28;20223;-74
2022/01/09 12:02:36;;;;;;;9.53;1.87;;;;;;;;;;5030283;28;20946;-75
2022/01/09 12:05:05;;;;;;;7.20;2.30;;;;;;;;;;5031262;28;20276;-73
2022/01/09 12:08:04;;;;;;;5.90;1.40;;;;;;;;;;5031293;28;20211;-74
2022/01/09 12:10:39;;;;;;;5.40;1.40;;;;;;;;;;5029669;28;20298;-74
2022/01/09 12:13:26;;;;;;;5.50;1.73;;;;;;;;;;5030133;28;20479;-75
2022/01/09 12:15:53;;;;;;;6.37;1.53;;;;;;;;;;5029733;28;20344;-74
2022/01/09 12:18:41;;;;;;;7.93;2.10;;;;;;;;;;5029140;28;20234;-75
2022/01/09 12:21:08;;;;;;;8.27;2.30;;;;;;;;;;5029499;28;20245;-74
2022/01/09 12:23:34;;;;;;;5.00;1.40;;;;;;;;;;5029612;28;20211;-74
2022/01/09 12:26:02;;;;;;;7.03;1.93;;;;;;;;;;5029286;28;20810;-74
2022/01/09 12:28:43;;;;;;;4.33;1.40;;;;;;;;;;5030041;28;20215;-74
2022/01/09 12:31:24;;;;;;;4.10;1.40;;;;;;;;;;5029839;28;20578;-74
2022/01/09 12:33:50;;;;;;;10.80;2.27;;;;;;;;;;5029648;28;20214;-74
2022/01/09 12:36:23;;;;;;;6.87;1.80;;;;;;;;;;5028558;28;20218;-74
2022/01/09 12:38:55;;;;;;;10.23;2.00;;;;;;;;;;5030725;28;20218;-74
2022/01/09 12:41:24;;;;;;;7.47;1.60;;;;;;;;;;5029734;28;20583;-75
2022/01/09 12:43:58;;;;;;;6.40;1.37;;;;;;;;;;5029730;28;20334;-74
2022/01/09 12:46:25;;;;;;;6.07;1.40;;;;;;;;;;5029025;28;20218;-75
2022/01/09 12:48:53;;;;;;;4.97;1.40;;;;;;;;;;5028620;28;20219;-75
2022/01/09 12:51:19;;;;;;;5.10;1.60;;;;;;;;;;5029334;28;20285;-75
2022/01/09 12:53:48;;;;;;;8.47;1.67;;;;;;;;;;5029156;28;20219;-75
2022/01/09 12:56:17;;;;;;;11.60;3.30;;;;;;;;;;5029761;28;21349;-76
2022/01/09 12:58:47;;;;;;;7.80;2.70;;;;;;;;;;5029452;28;20211;-75
2022/01/09 13:01:19;;;;;;;10.23;2.60;;;;;;;;;;5027715;28;20200;-75
2022/01/09 13:03:47;;;;;;;10.97;2.73;;;;;;;;;;5031434;28;20211;-75
2022/01/09 13:06:16;;;;;;;9.37;3.20;;;;;;;;;;5028989;28;20226;-75
2022/01/09 13:08:46;;;;;;;7.10;2.30;;;;;;;;;;5029588;28;20321;-75
2022/01/09 13:11:14;;;;;;;5.47;1.70;;;;;;;;;;5026371;28;20589;-75
2022/01/09 13:13:42;;;;;;;5.13;1.83;;;;;;;;;;5028241;28;20238;-75
2022/01/09 13:16:12;;;;;;;3.80;1.43;;;;;;;;;;5027127;28;20235;-75
2022/01/09 13:18:40;;;;;;;6.30;1.33;;;;;;;;;;5028919;28;20261;-76
2022/01/09 13:21:15;;;;;;;3.43;1.10;;;;;;;;;;5028144;28;20222;-75
2022/01/09 13:23:53;;;;;;;5.43;1.90;;;;;;;;;;5030806;28;20665;-75
2022/01/09 13:26:21;;;;;;;5.33;1.47;;;;;;;;;;5025705;28;20688;-75
2022/01/09 13:28:51;;;;;;;3.57;1.27;;;;;;;;;;5029084;28;20208;-75
2022/01/09 13:31:20;;;;;;;5.90;1.00;;;;;;;;;;5028030;28;20509;-74
2022/01/09 13:33:54;;;;;;;7.97;1.20;;;;;;;;;;5029993;28;20265;-74
2022/01/09 13:36:33;;;;;;;4.57;1.30;;;;;;;;;;5027792;28;20223;-76
2022/01/09 13:39:02;;;;;;;3.90;1.33;;;;;;;;;;5027131;28;20214;-75
2022/01/09 13:41:39;;;;;;;7.10;1.70;;;;;;;;;;5028504;28;20298;-74
2022/01/09 13:44:06;;;;;;;6.67;1.83;;;;;;;;;;5026592;28;20214;-74
2022/01/09 13:46:35;;;;;;;5.70;1.90;;;;;;;;;;5025878;28;20230;-76
2022/01/09 13:49:10;;;;;;;7.20;1.93;;;;;;;;;;5028309;28;20207;-76
2022/01/09 13:51:43;;;;;;;8.43;1.93;;;;;;;;;;5027870;28;20364;-74
2022/01/09 13:54:12;;;;;;;8.27;1.67;;;;;;;;;;5027091;28;20969;-75
2022/01/09 13:56:40;;;;;;;6.80;1.63;;;;;;;;;;5027175;28;20215;-74
2022/01/09 13:59:07;;;;;;;7.87;1.67;;;;;;;;;;5027484;28;20329;-74
2022/01/09 14:01:47;;;;;;;7.10;1.80;;;;;;;;;;5027739;28;20223;-74
2022/01/09 14:04:16;;;;;;;5.67;1.70;;;;;;;;;;5026922;28;20210;-74
2022/01/09 14:06:43;;;;;;;5.10;1.83;;;;;;;;;;5027951;28;20222;-73
2022/01/09 14:09:10;;;;;;;6.53;2.40;;;;;;;;;;5026178;28;20223;-73
2022/01/09 14:11:37;;;;;;;8.50;1.93;;;;;;;;;;5026621;28;20261;-73
2022/01/09 14:14:04;;;;;;;7.27;2.63;;;;;;;;;;5027459;28;21180;-73
2022/01/09 14:16:36;;;;;;;8.57;2.70;;;;;;;;;;5027230;28;20853;-74
2022/01/09 14:19:06;;;;;;;5.43;2.17;;;;;;;;;;5029122;28;21315;-72
2022/01/09 14:21:33;;;;;;;10.07;2.70;;;;;;;;;;5027078;28;20381;-72
2022/01/09 14:24:08;;;;;;;9.33;2.13;;;;;;;;;;5029663;28;20214;-73
2022/01/09 14:26:35;;;;;;;11.63;2.20;;;;;;;;;;5028526;28;20209;-73
2022/01/09 14:29:02;;;;;;;8.40;2.27;;;;;;;;;;5027178;28;20743;-73
2022/01/09 14:31:36;;;;;;;9.37;1.77;;;;;;;;;;5026584;28;20231;-72
2022/01/09 14:34:06;;;;;;;11.90;2.90;;;;;;;;;;5027904;28;20220;-73
2022/01/09 14:36:35;;;;;;;7.90;2.00;;;;;;;;;;5028347;28;20241;-73
2022/01/09 14:39:04;;;;;;;9.30;2.00;;;;;;;;;;5028382;28;20220;-73
2022/01/09 14:41:32;;;;;;;7.73;2.20;;;;;;;;;;5026591;28;20229;-73
2022/01/09 14:44:00;;;;;;;9.27;2.70;;;;;;;;;;5027979;28;20313;-73
2022/01/09 14:46:27;;;;;;;8.23;2.03;;;;;;;;;;5027209;28;20454;-74
2022/01/09 14:48:54;;;;;;;8.03;2.63;;;;;;;;;;5027115;28;20218;-73